Terminal Aerodrome Forecast
Issued by NWS

Home | Current Version | Previous Version | Text Only | Print | Product List | Glossary On
Versions: 1 2 3 4 5 6 7 8 9 10 11 12 13 14
000
FTAK31 PAJN 261700
TAFASI
TAF
PASI 261738Z 2618/2718 06004KT P6SM VCFG SCT010
     FM262300 02007KT P6SM SKC
     FM270500 06010KT P6SM SKC
     FM271200 10010G20KT P6SM SCT050=

USA.gov is the U.S. government's official web portal to all federal, state and local government web resources and services.